sensor_id;sensor_type;location;lat;lon;timestamp;P1;durP1;ratioP1;P2;durP2;ratioP2
14939;SDS011;11825;51.898;8.202;2023-04-15T00:00:55;6.50;;;5.80;;
14939;SDS011;11825;51.898;8.202;2023-04-15T00:05:58;6.43;;;5.63;;
14939;SDS011;11825;51.898;8.202;2023-04-15T00:11:01;9.73;;;6.70;;
14939;SDS011;11825;51.898;8.202;2023-04-15T00:16:06;7.30;;;5.90;;
14939;SDS011;11825;51.898;8.202;2023-04-15T00:21:09;7.03;;;6.17;;
14939;SDS011;11825;51.898;8.202;2023-04-15T00:26:11;5.83;;;5.33;;
14939;SDS011;11825;51.898;8.202;2023-04-15T00:31:15;6.40;;;5.70;;
14939;SDS011;11825;51.898;8.202;2023-04-15T00:36:18;6.40;;;5.80;;
14939;SDS011;11825;51.898;8.202;2023-04-15T00:41:20;8.13;;;6.13;;
14939;SDS011;11825;51.898;8.202;2023-04-15T00:46:23;7.70;;;5.97;;
14939;SDS011;11825;51.898;8.202;2023-04-15T00:51:26;7.00;;;6.33;;
14939;SDS011;11825;51.898;8.202;2023-04-15T00:56:29;6.77;;;5.97;;
14939;SDS011;11825;51.898;8.202;2023-04-15T01:01:32;6.93;;;6.13;;
14939;SDS011;11825;51.898;8.202;2023-04-15T01:06:38;6.43;;;5.83;;
14939;SDS011;11825;51.898;8.202;2023-04-15T01:11:41;7.77;;;6.17;;
14939;SDS011;11825;51.898;8.202;2023-04-15T01:16:43;7.73;;;6.23;;
14939;SDS011;11825;51.898;8.202;2023-04-15T01:21:46;7.17;;;6.47;;
14939;SDS011;11825;51.898;8.202;2023-04-15T01:26:48;7.17;;;6.47;;
14939;SDS011;11825;51.898;8.202;2023-04-15T01:31:51;8.80;;;7.13;;
14939;SDS011;11825;51.898;8.202;2023-04-15T01:36:54;8.10;;;7.30;;
14939;SDS011;11825;51.898;8.202;2023-04-15T01:41:59;8.00;;;7.20;;
14939;SDS011;11825;51.898;8.202;2023-04-15T01:47:03;7.83;;;7.07;;
14939;SDS011;11825;51.898;8.202;2023-04-15T01:52:07;8.50;;;7.03;;
14939;SDS011;11825;51.898;8.202;2023-04-15T01:57:11;8.40;;;7.57;;
14939;SDS011;11825;51.898;8.202;2023-04-15T02:02:13;8.43;;;7.63;;
14939;SDS011;11825;51.898;8.202;2023-04-15T02:07:15;8.33;;;7.53;;
14939;SDS011;11825;51.898;8.202;2023-04-15T02:12:17;8.57;;;7.43;;
14939;SDS011;11825;51.898;8.202;2023-04-15T02:17:20;8.83;;;7.93;;
14939;SDS011;11825;51.898;8.202;2023-04-15T02:22:22;10.87;;;9.37;;
14939;SDS011;11825;51.898;8.202;2023-04-15T02:27:25;9.83;;;8.80;;
14939;SDS011;11825;51.898;8.202;2023-04-15T02:32:28;10.20;;;9.07;;
14939;SDS011;11825;51.898;8.202;2023-04-15T02:37:31;11.00;;;9.83;;
14939;SDS011;11825;51.898;8.202;2023-04-15T02:42:37;10.30;;;8.80;;
14939;SDS011;11825;51.898;8.202;2023-04-15T02:47:39;10.87;;;9.03;;
14939;SDS011;11825;51.898;8.202;2023-04-15T02:52:42;11.17;;;9.70;;
14939;SDS011;11825;51.898;8.202;2023-04-15T02:57:45;10.40;;;9.40;;
14939;SDS011;11825;51.898;8.202;2023-04-15T03:08:42;11.10;;;10.03;;
14939;SDS011;11825;51.898;8.202;2023-04-15T03:13:44;10.63;;;9.53;;
14939;SDS011;11825;51.898;8.202;2023-04-15T03:18:46;12.83;;;10.00;;
14939;SDS011;11825;51.898;8.202;2023-04-15T03:23:48;10.43;;;9.23;;
14939;SDS011;11825;51.898;8.202;2023-04-15T03:28:50;11.23;;;10.10;;
14939;SDS011;11825;51.898;8.202;2023-04-15T03:33:51;11.43;;;10.33;;
14939;SDS011;11825;51.898;8.202;2023-04-15T03:38:53;12.17;;;10.87;;
14939;SDS011;11825;51.898;8.202;2023-04-15T03:43:59;10.87;;;9.07;;
14939;SDS011;11825;51.898;8.202;2023-04-15T03:49:01;12.73;;;10.03;;
14939;SDS011;11825;51.898;8.202;2023-04-15T03:54:04;12.77;;;9.97;;
14939;SDS011;11825;51.898;8.202;2023-04-15T03:59:10;13.10;;;10.13;;
14939;SDS011;11825;51.898;8.202;2023-04-15T04:04:14;15.93;;;10.43;;
14939;SDS011;11825;51.898;8.202;2023-04-15T04:09:17;11.87;;;10.67;;
14939;SDS011;11825;51.898;8.202;2023-04-15T04:14:20;12.23;;;10.87;;
14939;SDS011;11825;51.898;8.202;2023-04-15T04:19:26;12.00;;;10.83;;
14939;SDS011;11825;51.898;8.202;2023-04-15T04:24:30;11.20;;;9.87;;
14939;SDS011;11825;51.898;8.202;2023-04-15T04:29:32;14.50;;;10.57;;
14939;SDS011;11825;51.898;8.202;2023-04-15T04:34:35;11.20;;;9.77;;
14939;SDS011;11825;51.898;8.202;2023-04-15T04:39:41;11.90;;;10.70;;
14939;SDS011;11825;51.898;8.202;2023-04-15T04:44:43;13.40;;;11.33;;
14939;SDS011;11825;51.898;8.202;2023-04-15T04:49:45;13.10;;;11.70;;
14939;SDS011;11825;51.898;8.202;2023-04-15T04:54:47;11.47;;;10.27;;
14939;SDS011;11825;51.898;8.202;2023-04-15T04:59:52;11.40;;;10.20;;
14939;SDS011;11825;51.898;8.202;2023-04-15T05:04:54;13.07;;;11.63;;
14939;SDS011;11825;51.898;8.202;2023-04-15T05:10:10;14.03;;;12.67;;
14939;SDS011;11825;51.898;8.202;2023-04-15T05:15:22;12.90;;;11.37;;
14939;SDS011;11825;51.898;8.202;2023-04-15T05:20:28;12.10;;;10.90;;
14939;SDS011;11825;51.898;8.202;2023-04-15T05:25:32;13.80;;;12.40;;
14939;SDS011;11825;51.898;8.202;2023-04-15T05:30:38;13.30;;;12.00;;
14939;SDS011;11825;51.898;8.202;2023-04-15T05:35:46;14.20;;;12.27;;
14939;SDS011;11825;51.898;8.202;2023-04-15T05:40:48;13.50;;;10.83;;
14939;SDS011;11825;51.898;8.202;2023-04-15T05:45:51;12.87;;;11.33;;
14939;SDS011;11825;51.898;8.202;2023-04-15T05:50:53;13.17;;;11.87;;
14939;SDS011;11825;51.898;8.202;2023-04-15T05:55:57;12.83;;;11.60;;
14939;SDS011;11825;51.898;8.202;2023-04-15T06:00:59;13.63;;;12.33;;
14939;SDS011;11825;51.898;8.202;2023-04-15T06:06:04;12.50;;;11.20;;
14939;SDS011;11825;51.898;8.202;2023-04-15T06:11:07;14.30;;;12.67;;
14939;SDS011;11825;51.898;8.202;2023-04-15T06:16:12;13.13;;;11.80;;
14939;SDS011;11825;51.898;8.202;2023-04-15T06:21:14;14.17;;;12.40;;
14939;SDS011;11825;51.898;8.202;2023-04-15T06:26:18;15.57;;;13.10;;
14939;SDS011;11825;51.898;8.202;2023-04-15T06:31:22;18.80;;;13.93;;
14939;SDS011;11825;51.898;8.202;2023-04-15T06:36:25;15.73;;;14.03;;
14939;SDS011;11825;51.898;8.202;2023-04-15T06:41:28;14.03;;;12.70;;
14939;SDS011;11825;51.898;8.202;2023-04-15T06:46:29;16.20;;;13.93;;
14939;SDS011;11825;51.898;8.202;2023-04-15T06:51:38;14.87;;;13.30;;
14939;SDS011;11825;51.898;8.202;2023-04-15T06:56:40;15.13;;;13.10;;
14939;SDS011;11825;51.898;8.202;2023-04-15T07:01:42;16.50;;;14.67;;
14939;SDS011;11825;51.898;8.202;2023-04-15T07:06:44;18.80;;;14.00;;
14939;SDS011;11825;51.898;8.202;2023-04-15T07:11:50;15.87;;;14.17;;
14939;SDS011;11825;51.898;8.202;2023-04-15T07:16:53;18.23;;;15.20;;
14939;SDS011;11825;51.898;8.202;2023-04-15T07:21:56;16.50;;;14.70;;
14939;SDS011;11825;51.898;8.202;2023-04-15T07:26:59;15.53;;;13.57;;
14939;SDS011;11825;51.898;8.202;2023-04-15T07:32:02;19.83;;;14.10;;
14939;SDS011;11825;51.898;8.202;2023-04-15T07:37:05;15.00;;;12.97;;
14939;SDS011;11825;51.898;8.202;2023-04-15T07:42:08;15.27;;;12.93;;
14939;SDS011;11825;51.898;8.202;2023-04-15T07:47:16;15.83;;;13.43;;
14939;SDS011;11825;51.898;8.202;2023-04-15T07:52:24;15.57;;;12.97;;
14939;SDS011;11825;51.898;8.202;2023-04-15T07:57:28;13.87;;;12.30;;
14939;SDS011;11825;51.898;8.202;2023-04-15T08:02:30;16.47;;;13.33;;
14939;SDS011;11825;51.898;8.202;2023-04-15T08:07:33;15.37;;;13.77;;
14939;SDS011;11825;51.898;8.202;2023-04-15T08:12:38;17.10;;;15.30;;
14939;SDS011;11825;51.898;8.202;2023-04-15T08:17:50;17.07;;;14.70;;
14939;SDS011;11825;51.898;8.202;2023-04-15T08:22:57;18.80;;;16.43;;
14939;SDS011;11825;51.898;8.202;2023-04-15T08:28:05;20.33;;;17.40;;
14939;SDS011;11825;51.898;8.202;2023-04-15T08:33:08;18.37;;;16.47;;
14939;SDS011;11825;51.898;8.202;2023-04-15T08:38:17;21.30;;;17.67;;
14939;SDS011;11825;51.898;8.202;2023-04-15T08:43:23;22.30;;;19.53;;
14939;SDS011;11825;51.898;8.202;2023-04-15T08:48:29;20.93;;;16.47;;
14939;SDS011;11825;51.898;8.202;2023-04-15T08:53:36;20.13;;;17.77;;
14939;SDS011;11825;51.898;8.202;2023-04-15T08:58:38;17.80;;;14.43;;
14939;SDS011;11825;51.898;8.202;2023-04-15T09:03:40;19.30;;;15.63;;
14939;SDS011;11825;51.898;8.202;2023-04-15T09:08:47;17.53;;;15.03;;
14939;SDS011;11825;51.898;8.202;2023-04-15T09:13:50;13.97;;;11.63;;
14939;SDS011;11825;51.898;8.202;2023-04-15T09:18:53;15.20;;;12.13;;
14939;SDS011;11825;51.898;8.202;2023-04-15T09:23:56;12.90;;;10.37;;
14939;SDS011;11825;51.898;8.202;2023-04-15T09:29:05;14.43;;;10.57;;
14939;SDS011;11825;51.898;8.202;2023-04-15T09:34:08;11.57;;;10.07;;
14939;SDS011;11825;51.898;8.202;2023-04-15T09:39:10;10.57;;;9.00;;
14939;SDS011;11825;51.898;8.202;2023-04-15T09:44:21;11.20;;;9.00;;
14939;SDS011;11825;51.898;8.202;2023-04-15T09:49:24;10.90;;;8.70;;
14939;SDS011;11825;51.898;8.202;2023-04-15T09:54:35;8.53;;;7.50;;
14939;SDS011;11825;51.898;8.202;2023-04-15T09:59:38;9.87;;;7.07;;
14939;SDS011;11825;51.898;8.202;2023-04-15T10:04:57;9.20;;;7.23;;
14939;SDS011;11825;51.898;8.202;2023-04-15T10:10:00;15.00;;;13.37;;
14939;SDS011;11825;51.898;8.202;2023-04-15T10:15:16;7.20;;;6.30;;
14939;SDS011;11825;51.898;8.202;2023-04-15T10:20:25;8.20;;;6.70;;
14939;SDS011;11825;51.898;8.202;2023-04-15T10:25:34;5.80;;;5.20;;
14939;SDS011;11825;51.898;8.202;2023-04-15T10:30:49;6.13;;;4.77;;
14939;SDS011;11825;51.898;8.202;2023-04-15T10:35:57;6.40;;;5.43;;
14939;SDS011;11825;51.898;8.202;2023-04-15T10:46:17;10.80;;;5.43;;
14939;SDS011;11825;51.898;8.202;2023-04-15T10:51:28;6.30;;;5.33;;
14939;SDS011;11825;51.898;8.202;2023-04-15T10:56:34;8.17;;;4.60;;
14939;SDS011;11825;51.898;8.202;2023-04-15T11:01:55;5.23;;;4.50;;
14939;SDS011;11825;51.898;8.202;2023-04-15T11:07:05;5.07;;;4.57;;
14939;SDS011;11825;51.898;8.202;2023-04-15T11:12:10;7.07;;;6.37;;
14939;SDS011;11825;51.898;8.202;2023-04-15T11:17:30;6.57;;;5.83;;
14939;SDS011;11825;51.898;8.202;2023-04-15T11:22:32;8.20;;;5.90;;
14939;SDS011;11825;51.898;8.202;2023-04-15T11:27:34;7.33;;;6.57;;
14939;SDS011;11825;51.898;8.202;2023-04-15T11:32:36;7.47;;;6.77;;
14939;SDS011;11825;51.898;8.202;2023-04-15T11:37:54;8.00;;;7.20;;
14939;SDS011;11825;51.898;8.202;2023-04-15T11:48:11;8.17;;;7.37;;
14939;SDS011;11825;51.898;8.202;2023-04-15T11:53:17;10.03;;;9.03;;
14939;SDS011;11825;51.898;8.202;2023-04-15T11:58:22;9.93;;;8.07;;
14939;SDS011;11825;51.898;8.202;2023-04-15T12:03:26;10.27;;;7.87;;
14939;SDS011;11825;51.898;8.202;2023-04-15T12:19:07;6.90;;;6.20;;
14939;SDS011;11825;51.898;8.202;2023-04-15T12:24:20;7.00;;;6.00;;
14939;SDS011;11825;51.898;8.202;2023-04-15T12:29:27;7.43;;;6.33;;
14939;SDS011;11825;51.898;8.202;2023-04-15T12:34:39;7.27;;;5.93;;
14939;SDS011;11825;51.898;8.202;2023-04-15T12:39:49;5.43;;;4.83;;
14939;SDS011;11825;51.898;8.202;2023-04-15T12:44:57;5.10;;;4.60;;
14939;SDS011;11825;51.898;8.202;2023-04-15T12:50:02;5.93;;;4.87;;
14939;SDS011;11825;51.898;8.202;2023-04-15T12:55:12;5.07;;;4.57;;
14939;SDS011;11825;51.898;8.202;2023-04-15T13:00:19;5.33;;;4.83;;
14939;SDS011;11825;51.898;8.202;2023-04-15T13:05:22;4.30;;;3.77;;
14939;SDS011;11825;51.898;8.202;2023-04-15T13:10:43;4.20;;;3.80;;
14939;SDS011;11825;51.898;8.202;2023-04-15T13:15:53;4.33;;;3.93;;
14939;SDS011;11825;51.898;8.202;2023-04-15T13:20:58;4.00;;;3.60;;
14939;SDS011;11825;51.898;8.202;2023-04-15T13:26:08;5.40;;;3.87;;
14939;SDS011;11825;51.898;8.202;2023-04-15T13:31:16;4.27;;;3.87;;
14939;SDS011;11825;51.898;8.202;2023-04-15T13:36:18;5.47;;;4.07;;
14939;SDS011;11825;51.898;8.202;2023-04-15T13:41:20;5.10;;;4.33;;
14939;SDS011;11825;51.898;8.202;2023-04-15T13:46:25;3.80;;;3.50;;
14939;SDS011;11825;51.898;8.202;2023-04-15T13:51:28;5.97;;;4.63;;
14939;SDS011;11825;51.898;8.202;2023-04-15T13:56:30;5.03;;;4.53;;
14939;SDS011;11825;51.898;8.202;2023-04-15T14:01:33;4.07;;;3.67;;
14939;SDS011;11825;51.898;8.202;2023-04-15T14:06:36;4.77;;;4.20;;
14939;SDS011;11825;51.898;8.202;2023-04-15T14:11:41;3.70;;;3.40;;
14939;SDS011;11825;51.898;8.202;2023-04-15T14:17:02;5.97;;;5.37;;
14939;SDS011;11825;51.898;8.202;2023-04-15T14:22:09;3.57;;;3.27;;
14939;SDS011;11825;51.898;8.202;2023-04-15T14:27:19;5.17;;;4.73;;
14939;SDS011;11825;51.898;8.202;2023-04-15T14:32:23;4.60;;;4.20;;
14939;SDS011;11825;51.898;8.202;2023-04-15T14:37:26;5.17;;;4.43;;
14939;SDS011;11825;51.898;8.202;2023-04-15T14:42:32;6.07;;;5.37;;
14939;SDS011;11825;51.898;8.202;2023-04-15T14:47:34;7.20;;;6.00;;
14939;SDS011;11825;51.898;8.202;2023-04-15T14:52:41;6.47;;;5.83;;
14939;SDS011;11825;51.898;8.202;2023-04-15T14:57:57;7.93;;;6.63;;
14939;SDS011;11825;51.898;8.202;2023-04-15T15:02:59;8.00;;;7.20;;
14939;SDS011;11825;51.898;8.202;2023-04-15T15:08:01;8.53;;;7.63;;
14939;SDS011;11825;51.898;8.202;2023-04-15T15:13:06;11.60;;;9.60;;
14939;SDS011;11825;51.898;8.202;2023-04-15T15:18:09;14.13;;;11.97;;
14939;SDS011;11825;51.898;8.202;2023-04-15T15:23:14;12.37;;;11.17;;
14939;SDS011;11825;51.898;8.202;2023-04-15T15:28:18;11.07;;;9.93;;
14939;SDS011;11825;51.898;8.202;2023-04-15T15:33:21;11.93;;;9.27;;
14939;SDS011;11825;51.898;8.202;2023-04-15T15:38:23;11.27;;;10.17;;
14939;SDS011;11825;51.898;8.202;2023-04-15T15:43:26;13.30;;;11.97;;
14939;SDS011;11825;51.898;8.202;2023-04-15T15:48:31;16.57;;;14.73;;
14939;SDS011;11825;51.898;8.202;2023-04-15T15:53:33;15.67;;;13.53;;
14939;SDS011;11825;51.898;8.202;2023-04-15T15:58:35;16.83;;;12.63;;
14939;SDS011;11825;51.898;8.202;2023-04-15T16:03:41;14.03;;;11.83;;
14939;SDS011;11825;51.898;8.202;2023-04-15T16:08:43;14.47;;;11.67;;
14939;SDS011;11825;51.898;8.202;2023-04-15T16:13:47;14.37;;;12.67;;
14939;SDS011;11825;51.898;8.202;2023-04-15T16:18:50;12.60;;;11.07;;
14939;SDS011;11825;51.898;8.202;2023-04-15T16:23:52;12.97;;;11.67;;
14939;SDS011;11825;51.898;8.202;2023-04-15T16:28:54;17.63;;;12.63;;
14939;SDS011;11825;51.898;8.202;2023-04-15T16:33:56;15.73;;;14.10;;
14939;SDS011;11825;51.898;8.202;2023-04-15T16:38:58;18.10;;;14.40;;
14939;SDS011;11825;51.898;8.202;2023-04-15T16:44:03;17.40;;;15.00;;
14939;SDS011;11825;51.898;8.202;2023-04-15T16:49:09;19.83;;;17.17;;
14939;SDS011;11825;51.898;8.202;2023-04-15T16:54:12;17.77;;;14.80;;
14939;SDS011;11825;51.898;8.202;2023-04-15T16:59:14;19.20;;;15.67;;
14939;SDS011;11825;51.898;8.202;2023-04-15T17:04:17;20.77;;;15.27;;
14939;SDS011;11825;51.898;8.202;2023-04-15T17:09:19;16.53;;;13.07;;
14939;SDS011;11825;51.898;8.202;2023-04-15T17:14:23;16.30;;;13.63;;
14939;SDS011;11825;51.898;8.202;2023-04-15T17:19:28;16.87;;;12.23;;
14939;SDS011;11825;51.898;8.202;2023-04-15T17:24:30;15.27;;;12.90;;
14939;SDS011;11825;51.898;8.202;2023-04-15T17:29:35;14.77;;;12.50;;
14939;SDS011;11825;51.898;8.202;2023-04-15T17:34:37;14.83;;;11.77;;
14939;SDS011;11825;51.898;8.202;2023-04-15T17:39:51;13.90;;;11.30;;
14939;SDS011;11825;51.898;8.202;2023-04-15T17:44:58;14.63;;;11.73;;
14939;SDS011;11825;51.898;8.202;2023-04-15T17:50:02;15.63;;;12.33;;
14939;SDS011;11825;51.898;8.202;2023-04-15T17:55:05;16.47;;;12.20;;
14939;SDS011;11825;51.898;8.202;2023-04-15T18:00:10;13.40;;;10.70;;
14939;SDS011;11825;51.898;8.202;2023-04-15T18:05:15;13.33;;;10.00;;
14939;SDS011;11825;51.898;8.202;2023-04-15T18:10:44;16.40;;;11.63;;
14939;SDS011;11825;51.898;8.202;2023-04-15T18:15:46;18.73;;;11.40;;
14939;SDS011;11825;51.898;8.202;2023-04-15T18:20:49;18.23;;;11.37;;
14939;SDS011;11825;51.898;8.202;2023-04-15T18:26:14;16.03;;;12.77;;
14939;SDS011;11825;51.898;8.202;2023-04-15T18:37:08;18.00;;;12.70;;
14939;SDS011;11825;51.898;8.202;2023-04-15T18:43:22;18.40;;;12.40;;
14939;SDS011;11825;51.898;8.202;2023-04-15T18:48:43;17.10;;;12.93;;
14939;SDS011;11825;51.898;8.202;2023-04-15T18:53:53;26.23;;;15.93;;
14939;SDS011;11825;51.898;8.202;2023-04-15T18:58:58;18.53;;;14.57;;
14939;SDS011;11825;51.898;8.202;2023-04-15T19:04:21;23.80;;;15.57;;
14939;SDS011;11825;51.898;8.202;2023-04-15T19:09:24;22.73;;;15.23;;
14939;SDS011;11825;51.898;8.202;2023-04-15T19:14:30;21.27;;;14.93;;
14939;SDS011;11825;51.898;8.202;2023-04-15T19:19:32;21.63;;;14.90;;
14939;SDS011;11825;51.898;8.202;2023-04-15T19:24:39;20.90;;;14.83;;
14939;SDS011;11825;51.898;8.202;2023-04-15T19:29:44;25.30;;;17.23;;
14939;SDS011;11825;51.898;8.202;2023-04-15T19:34:47;29.13;;;18.27;;
14939;SDS011;11825;51.898;8.202;2023-04-15T19:39:51;23.23;;;16.50;;
14939;SDS011;11825;51.898;8.202;2023-04-15T19:45:05;26.17;;;18.80;;
14939;SDS011;11825;51.898;8.202;2023-04-15T19:50:17;23.00;;;17.43;;
14939;SDS011;11825;51.898;8.202;2023-04-15T19:55:34;20.63;;;16.70;;
14939;SDS011;11825;51.898;8.202;2023-04-15T20:00:40;25.10;;;17.70;;
14939;SDS011;11825;51.898;8.202;2023-04-15T20:05:43;37.63;;;27.47;;
14939;SDS011;11825;51.898;8.202;2023-04-15T20:10:48;25.57;;;19.53;;
14939;SDS011;11825;51.898;8.202;2023-04-15T20:15:50;26.17;;;18.43;;
14939;SDS011;11825;51.898;8.202;2023-04-15T20:20:52;30.53;;;21.07;;
14939;SDS011;11825;51.898;8.202;2023-04-15T20:25:54;25.60;;;20.30;;
14939;SDS011;11825;51.898;8.202;2023-04-15T20:30:57;26.17;;;19.60;;
14939;SDS011;11825;51.898;8.202;2023-04-15T20:36:00;27.33;;;20.47;;
14939;SDS011;11825;51.898;8.202;2023-04-15T20:41:02;38.27;;;24.27;;
14939;SDS011;11825;51.898;8.202;2023-04-15T20:46:04;34.53;;;23.00;;
14939;SDS011;11825;51.898;8.202;2023-04-15T20:51:21;36.77;;;23.47;;
14939;SDS011;11825;51.898;8.202;2023-04-15T20:56:22;42.03;;;24.60;;
14939;SDS011;11825;51.898;8.202;2023-04-15T21:01:24;43.70;;;25.17;;
14939;SDS011;11825;51.898;8.202;2023-04-15T21:06:26;38.37;;;25.53;;
14939;SDS011;11825;51.898;8.202;2023-04-15T21:11:28;43.07;;;26.33;;
14939;SDS011;11825;51.898;8.202;2023-04-15T21:16:52;34.10;;;25.33;;
14939;SDS011;11825;51.898;8.202;2023-04-15T21:21:54;38.87;;;26.73;;
14939;SDS011;11825;51.898;8.202;2023-04-15T21:26:57;36.93;;;24.43;;
14939;SDS011;11825;51.898;8.202;2023-04-15T21:32:01;43.40;;;27.23;;
14939;SDS011;11825;51.898;8.202;2023-04-15T21:37:03;44.03;;;28.20;;
14939;SDS011;11825;51.898;8.202;2023-04-15T21:42:05;44.00;;;28.60;;
14939;SDS011;11825;51.898;8.202;2023-04-15T21:47:08;42.20;;;28.00;;
14939;SDS011;11825;51.898;8.202;2023-04-15T21:52:15;46.90;;;29.67;;
14939;SDS011;11825;51.898;8.202;2023-04-15T21:57:17;44.10;;;28.77;;
14939;SDS011;11825;51.898;8.202;2023-04-15T22:02:19;49.10;;;30.80;;
14939;SDS011;11825;51.898;8.202;2023-04-15T22:07:21;49.67;;;29.13;;
14939;SDS011;11825;51.898;8.202;2023-04-15T22:12:24;54.00;;;30.67;;
14939;SDS011;11825;51.898;8.202;2023-04-15T22:17:28;50.73;;;32.27;;
14939;SDS011;11825;51.898;8.202;2023-04-15T22:22:31;45.20;;;29.53;;
14939;SDS011;11825;51.898;8.202;2023-04-15T22:27:44;42.43;;;29.73;;
14939;SDS011;11825;51.898;8.202;2023-04-15T22:32:46;48.23;;;31.20;;
14939;SDS011;11825;51.898;8.202;2023-04-15T22:37:48;43.30;;;29.97;;
14939;SDS011;11825;51.898;8.202;2023-04-15T22:42:53;47.70;;;31.63;;
14939;SDS011;11825;51.898;8.202;2023-04-15T22:47:54;44.43;;;30.57;;
14939;SDS011;11825;51.898;8.202;2023-04-15T22:52:56;46.03;;;31.03;;
14939;SDS011;11825;51.898;8.202;2023-04-15T22:57:58;44.03;;;29.20;;
14939;SDS011;11825;51.898;8.202;2023-04-15T23:03:00;45.53;;;28.93;;
14939;SDS011;11825;51.898;8.202;2023-04-15T23:08:02;34.77;;;28.37;;
14939;SDS011;11825;51.898;8.202;2023-04-15T23:13:04;40.37;;;28.03;;
14939;SDS011;11825;51.898;8.202;2023-04-15T23:18:06;41.77;;;29.83;;
14939;SDS011;11825;51.898;8.202;2023-04-15T23:23:08;37.33;;;28.03;;
14939;SDS011;11825;51.898;8.202;2023-04-15T23:28:10;38.70;;;29.33;;
14939;SDS011;11825;51.898;8.202;2023-04-15T23:33:12;37.10;;;30.10;;
14939;SDS011;11825;51.898;8.202;2023-04-15T23:38:14;43.97;;;28.57;;
14939;SDS011;11825;51.898;8.202;2023-04-15T23:43:16;41.90;;;29.73;;
14939;SDS011;11825;51.898;8.202;2023-04-15T23:48:22;41.80;;;29.57;;
14939;SDS011;11825;51.898;8.202;2023-04-15T23:53:24;45.67;;;31.00;;
14939;SDS011;11825;51.898;8.202;2023-04-15T23:58:26;41.87;;;27.90;;
